sensor_id;sensor_type;location;lat;lon;timestamp;P1;durP1;ratioP1;P2;durP2;ratioP2
50932;SDS011;36921;49.006;9.292;2023-06-14T00:01:24;7.13;;;3.10;;
50932;SDS011;36921;49.006;9.292;2023-06-14T00:03:50;5.53;;;2.75;;
50932;SDS011;36921;49.006;9.292;2023-06-14T00:06:15;5.40;;;2.90;;
50932;SDS011;36921;49.006;9.292;2023-06-14T00:08:40;6.38;;;2.85;;
50932;SDS011;36921;49.006;9.292;2023-06-14T00:11:06;5.90;;;2.92;;
50932;SDS011;36921;49.006;9.292;2023-06-14T00:13:32;4.90;;;2.78;;
50932;SDS011;36921;49.006;9.292;2023-06-14T00:15:58;4.22;;;2.78;;
50932;SDS011;36921;49.006;9.292;2023-06-14T00:18:23;6.05;;;3.22;;
50932;SDS011;36921;49.006;9.292;2023-06-14T00:20:49;7.72;;;2.80;;
50932;SDS011;36921;49.006;9.292;2023-06-14T00:23:14;6.82;;;3.10;;
50932;SDS011;36921;49.006;9.292;2023-06-14T00:25:40;10.40;;;3.10;;
50932;SDS011;36921;49.006;9.292;2023-06-14T00:28:05;3.60;;;2.80;;
50932;SDS011;36921;49.006;9.292;2023-06-14T00:30:30;4.82;;;3.15;;
50932;SDS011;36921;49.006;9.292;2023-06-14T00:32:56;4.40;;;3.08;;
50932;SDS011;36921;49.006;9.292;2023-06-14T00:35:22;4.43;;;2.90;;
50932;SDS011;36921;49.006;9.292;2023-06-14T00:37:47;7.10;;;3.03;;
50932;SDS011;36921;49.006;9.292;2023-06-14T00:40:12;5.70;;;2.90;;
50932;SDS011;36921;49.006;9.292;2023-06-14T00:42:37;6.72;;;3.40;;
50932;SDS011;36921;49.006;9.292;2023-06-14T00:45:03;7.65;;;3.17;;
50932;SDS011;36921;49.006;9.292;2023-06-14T00:47:29;5.97;;;3.08;;
50932;SDS011;36921;49.006;9.292;2023-06-14T00:49:54;8.05;;;3.25;;
50932;SDS011;36921;49.006;9.292;2023-06-14T00:52:21;4.53;;;2.95;;
50932;SDS011;36921;49.006;9.292;2023-06-14T00:54:49;5.47;;;3.60;;
50932;SDS011;36921;49.006;9.292;2023-06-14T00:57:14;5.03;;;3.17;;
50932;SDS011;36921;49.006;9.292;2023-06-14T00:59:44;6.75;;;3.85;;
50932;SDS011;36921;49.006;9.292;2023-06-14T01:02:11;5.90;;;3.47;;
50932;SDS011;36921;49.006;9.292;2023-06-14T01:04:37;7.40;;;3.50;;
50932;SDS011;36921;49.006;9.292;2023-06-14T01:07:12;7.60;;;3.30;;
50932;SDS011;36921;49.006;9.292;2023-06-14T01:10:08;7.93;;;3.20;;
50932;SDS011;36921;49.006;9.292;2023-06-14T01:12:58;6.53;;;3.10;;
50932;SDS011;36921;49.006;9.292;2023-06-14T01:15:28;5.13;;;2.97;;
50932;SDS011;36921;49.006;9.292;2023-06-14T01:17:56;5.28;;;3.15;;
50932;SDS011;36921;49.006;9.292;2023-06-14T01:20:28;5.05;;;3.20;;
50932;SDS011;36921;49.006;9.292;2023-06-14T01:22:57;5.50;;;3.20;;
50932;SDS011;36921;49.006;9.292;2023-06-14T01:25:23;4.90;;;3.38;;
50932;SDS011;36921;49.006;9.292;2023-06-14T01:27:50;5.40;;;3.10;;
50932;SDS011;36921;49.006;9.292;2023-06-14T01:30:18;6.57;;;3.35;;
50932;SDS011;36921;49.006;9.292;2023-06-14T01:32:46;6.40;;;4.05;;
50932;SDS011;36921;49.006;9.292;2023-06-14T01:35:12;6.65;;;4.10;;
50932;SDS011;36921;49.006;9.292;2023-06-14T01:37:38;6.88;;;3.75;;
50932;SDS011;36921;49.006;9.292;2023-06-14T01:40:06;5.50;;;3.47;;
50932;SDS011;36921;49.006;9.292;2023-06-14T01:42:36;6.28;;;3.70;;
50932;SDS011;36921;49.006;9.292;2023-06-14T01:45:04;8.77;;;3.60;;
50932;SDS011;36921;49.006;9.292;2023-06-14T01:47:30;7.43;;;3.58;;
50932;SDS011;36921;49.006;9.292;2023-06-14T01:49:57;4.82;;;3.33;;
50932;SDS011;36921;49.006;9.292;2023-06-14T01:52:22;6.72;;;3.33;;
50932;SDS011;36921;49.006;9.292;2023-06-14T01:54:49;4.57;;;3.25;;
50932;SDS011;36921;49.006;9.292;2023-06-14T01:57:15;4.10;;;3.05;;
50932;SDS011;36921;49.006;9.292;2023-06-14T01:59:40;9.50;;;3.72;;
50932;SDS011;36921;49.006;9.292;2023-06-14T02:02:05;5.90;;;3.47;;
50932;SDS011;36921;49.006;9.292;2023-06-14T02:04:31;6.82;;;2.92;;
50932;SDS011;36921;49.006;9.292;2023-06-14T02:06:56;5.75;;;3.35;;
50932;SDS011;36921;49.006;9.292;2023-06-14T02:09:21;6.28;;;3.38;;
50932;SDS011;36921;49.006;9.292;2023-06-14T02:11:46;6.10;;;3.63;;
50932;SDS011;36921;49.006;9.292;2023-06-14T02:14:12;10.68;;;3.35;;
50932;SDS011;36921;49.006;9.292;2023-06-14T02:16:37;7.93;;;3.20;;
50932;SDS011;36921;49.006;9.292;2023-06-14T02:19:03;4.63;;;3.15;;
50932;SDS011;36921;49.006;9.292;2023-06-14T02:21:29;5.63;;;3.28;;
50932;SDS011;36921;49.006;9.292;2023-06-14T02:23:54;5.13;;;3.30;;
50932;SDS011;36921;49.006;9.292;2023-06-14T02:26:20;6.90;;;3.70;;
50932;SDS011;36921;49.006;9.292;2023-06-14T02:28:45;10.18;;;3.80;;
50932;SDS011;36921;49.006;9.292;2023-06-14T02:31:10;4.30;;;2.80;;
50932;SDS011;36921;49.006;9.292;2023-06-14T02:33:36;5.55;;;2.85;;
50932;SDS011;36921;49.006;9.292;2023-06-14T02:36:01;4.60;;;3.40;;
50932;SDS011;36921;49.006;9.292;2023-06-14T02:38:28;6.05;;;2.67;;
50932;SDS011;36921;49.006;9.292;2023-06-14T02:40:53;5.35;;;2.90;;
50932;SDS011;36921;49.006;9.292;2023-06-14T02:43:18;7.22;;;3.38;;
50932;SDS011;36921;49.006;9.292;2023-06-14T02:45:44;7.93;;;3.33;;
50932;SDS011;36921;49.006;9.292;2023-06-14T02:48:10;8.10;;;3.38;;
50932;SDS011;36921;49.006;9.292;2023-06-14T02:50:36;8.40;;;3.28;;
50932;SDS011;36921;49.006;9.292;2023-06-14T02:53:01;4.75;;;2.90;;
50932;SDS011;36921;49.006;9.292;2023-06-14T02:55:27;6.40;;;3.45;;
50932;SDS011;36921;49.006;9.292;2023-06-14T02:57:53;5.53;;;3.10;;
50932;SDS011;36921;49.006;9.292;2023-06-14T03:00:18;5.60;;;3.38;;
50932;SDS011;36921;49.006;9.292;2023-06-14T03:02:44;4.50;;;3.22;;
50932;SDS011;36921;49.006;9.292;2023-06-14T03:05:10;4.57;;;3.05;;
50932;SDS011;36921;49.006;9.292;2023-06-14T03:07:36;6.88;;;3.63;;
50932;SDS011;36921;49.006;9.292;2023-06-14T03:10:05;5.95;;;3.38;;
50932;SDS011;36921;49.006;9.292;2023-06-14T03:12:33;9.32;;;3.95;;
50932;SDS011;36921;49.006;9.292;2023-06-14T03:14:58;7.75;;;4.03;;
50932;SDS011;36921;49.006;9.292;2023-06-14T03:17:27;5.15;;;3.60;;
50932;SDS011;36921;49.006;9.292;2023-06-14T03:19:54;5.75;;;3.60;;
50932;SDS011;36921;49.006;9.292;2023-06-14T03:22:20;7.47;;;3.88;;
50932;SDS011;36921;49.006;9.292;2023-06-14T03:24:46;7.20;;;3.83;;
50932;SDS011;36921;49.006;9.292;2023-06-14T03:27:12;7.55;;;4.00;;
50932;SDS011;36921;49.006;9.292;2023-06-14T03:29:37;7.47;;;3.60;;
50932;SDS011;36921;49.006;9.292;2023-06-14T03:32:03;10.52;;;3.95;;
50932;SDS011;36921;49.006;9.292;2023-06-14T03:34:28;7.72;;;4.22;;
50932;SDS011;36921;49.006;9.292;2023-06-14T03:36:54;10.63;;;4.30;;
50932;SDS011;36921;49.006;9.292;2023-06-14T03:39:19;4.38;;;3.55;;
50932;SDS011;36921;49.006;9.292;2023-06-14T03:41:45;6.10;;;3.78;;
50932;SDS011;36921;49.006;9.292;2023-06-14T03:44:13;8.93;;;3.83;;
50932;SDS011;36921;49.006;9.292;2023-06-14T03:46:40;6.28;;;3.97;;
50932;SDS011;36921;49.006;9.292;2023-06-14T03:49:06;5.82;;;3.83;;
50932;SDS011;36921;49.006;9.292;2023-06-14T03:51:31;6.35;;;3.47;;
50932;SDS011;36921;49.006;9.292;2023-06-14T03:53:56;6.38;;;4.28;;
50932;SDS011;36921;49.006;9.292;2023-06-14T03:56:21;5.20;;;3.95;;
50932;SDS011;36921;49.006;9.292;2023-06-14T03:58:47;6.78;;;3.63;;
50932;SDS011;36921;49.006;9.292;2023-06-14T04:01:12;7.32;;;4.00;;
50932;SDS011;36921;49.006;9.292;2023-06-14T04:03:39;6.75;;;3.60;;
50932;SDS011;36921;49.006;9.292;2023-06-14T04:06:05;6.65;;;3.88;;
50932;SDS011;36921;49.006;9.292;2023-06-14T04:08:31;5.63;;;3.83;;
50932;SDS011;36921;49.006;9.292;2023-06-14T04:10:56;8.95;;;3.50;;
50932;SDS011;36921;49.006;9.292;2023-06-14T04:13:22;9.20;;;4.50;;
50932;SDS011;36921;49.006;9.292;2023-06-14T04:15:47;11.15;;;4.43;;
50932;SDS011;36921;49.006;9.292;2023-06-14T04:18:12;10.88;;;4.20;;
50932;SDS011;36921;49.006;9.292;2023-06-14T04:20:38;7.78;;;4.35;;
50932;SDS011;36921;49.006;9.292;2023-06-14T04:23:14;9.60;;;4.70;;
50932;SDS011;36921;49.006;9.292;2023-06-14T04:25:43;7.30;;;4.22;;
50932;SDS011;36921;49.006;9.292;2023-06-14T04:28:10;12.27;;;3.80;;
50932;SDS011;36921;49.006;9.292;2023-06-14T04:30:36;6.53;;;4.20;;
50932;SDS011;36921;49.006;9.292;2023-06-14T04:33:03;6.30;;;3.90;;
50932;SDS011;36921;49.006;9.292;2023-06-14T04:35:30;8.57;;;4.85;;
50932;SDS011;36921;49.006;9.292;2023-06-14T04:37:57;7.50;;;4.53;;
50932;SDS011;36921;49.006;9.292;2023-06-14T04:40:22;5.45;;;4.22;;
50932;SDS011;36921;49.006;9.292;2023-06-14T04:42:47;9.13;;;4.55;;
50932;SDS011;36921;49.006;9.292;2023-06-14T04:45:13;15.55;;;6.55;;
50932;SDS011;36921;49.006;9.292;2023-06-14T04:47:40;13.85;;;6.20;;
50932;SDS011;36921;49.006;9.292;2023-06-14T04:50:07;15.48;;;5.55;;
50932;SDS011;36921;49.006;9.292;2023-06-14T04:52:32;8.48;;;5.03;;
50932;SDS011;36921;49.006;9.292;2023-06-14T04:55:01;11.38;;;5.15;;
50932;SDS011;36921;49.006;9.292;2023-06-14T04:57:26;11.27;;;5.30;;
50932;SDS011;36921;49.006;9.292;2023-06-14T04:59:52;9.20;;;4.60;;
50932;SDS011;36921;49.006;9.292;2023-06-14T05:02:20;8.75;;;4.55;;
50932;SDS011;36921;49.006;9.292;2023-06-14T05:04:46;7.78;;;3.85;;
50932;SDS011;36921;49.006;9.292;2023-06-14T05:07:12;9.40;;;4.25;;
50932;SDS011;36921;49.006;9.292;2023-06-14T05:09:39;6.05;;;3.75;;
50932;SDS011;36921;49.006;9.292;2023-06-14T05:12:04;11.00;;;4.28;;
50932;SDS011;36921;49.006;9.292;2023-06-14T05:14:33;7.43;;;5.13;;
50932;SDS011;36921;49.006;9.292;2023-06-14T05:16:59;10.68;;;4.10;;
50932;SDS011;36921;49.006;9.292;2023-06-14T05:19:24;6.80;;;3.90;;
50932;SDS011;36921;49.006;9.292;2023-06-14T05:21:49;6.25;;;4.00;;
50932;SDS011;36921;49.006;9.292;2023-06-14T05:24:15;8.77;;;3.92;;
50932;SDS011;36921;49.006;9.292;2023-06-14T05:26:42;7.50;;;3.78;;
50932;SDS011;36921;49.006;9.292;2023-06-14T05:29:08;7.88;;;4.25;;
50932;SDS011;36921;49.006;9.292;2023-06-14T05:31:33;9.73;;;4.13;;
50932;SDS011;36921;49.006;9.292;2023-06-14T05:33:59;7.70;;;3.70;;
50932;SDS011;36921;49.006;9.292;2023-06-14T05:36:24;8.18;;;4.00;;
50932;SDS011;36921;49.006;9.292;2023-06-14T05:38:50;7.70;;;3.95;;
50932;SDS011;36921;49.006;9.292;2023-06-14T05:41:16;8.43;;;3.72;;
50932;SDS011;36921;49.006;9.292;2023-06-14T05:43:41;9.15;;;4.50;;
50932;SDS011;36921;49.006;9.292;2023-06-14T05:46:06;13.77;;;5.10;;
50932;SDS011;36921;49.006;9.292;2023-06-14T05:48:32;8.55;;;4.38;;
50932;SDS011;36921;49.006;9.292;2023-06-14T05:50:58;12.82;;;4.75;;
50932;SDS011;36921;49.006;9.292;2023-06-14T05:53:24;11.05;;;4.57;;
50932;SDS011;36921;49.006;9.292;2023-06-14T05:55:49;7.82;;;4.40;;
50932;SDS011;36921;49.006;9.292;2023-06-14T05:58:18;6.53;;;4.28;;
50932;SDS011;36921;49.006;9.292;2023-06-14T06:00:43;11.98;;;3.65;;
50932;SDS011;36921;49.006;9.292;2023-06-14T06:03:08;6.10;;;3.55;;
50932;SDS011;36921;49.006;9.292;2023-06-14T06:05:34;10.10;;;3.78;;
50932;SDS011;36921;49.006;9.292;2023-06-14T06:07:59;5.63;;;3.33;;
50932;SDS011;36921;49.006;9.292;2023-06-14T06:10:25;8.98;;;3.60;;
50932;SDS011;36921;49.006;9.292;2023-06-14T06:12:50;10.63;;;3.45;;
50932;SDS011;36921;49.006;9.292;2023-06-14T06:15:17;5.28;;;3.42;;
50932;SDS011;36921;49.006;9.292;2023-06-14T06:17:43;5.80;;;3.75;;
50932;SDS011;36921;49.006;9.292;2023-06-14T06:20:09;6.53;;;3.72;;
50932;SDS011;36921;49.006;9.292;2023-06-14T06:22:34;9.07;;;3.63;;
50932;SDS011;36921;49.006;9.292;2023-06-14T06:25:00;4.75;;;3.47;;
50932;SDS011;36921;49.006;9.292;2023-06-14T06:27:25;7.00;;;4.05;;
50932;SDS011;36921;49.006;9.292;2023-06-14T06:29:50;9.05;;;3.67;;
50932;SDS011;36921;49.006;9.292;2023-06-14T06:32:16;4.90;;;3.35;;
50932;SDS011;36921;49.006;9.292;2023-06-14T06:34:42;5.15;;;3.70;;
50932;SDS011;36921;49.006;9.292;2023-06-14T06:37:07;7.18;;;3.17;;
50932;SDS011;36921;49.006;9.292;2023-06-14T06:39:32;7.38;;;3.20;;
50932;SDS011;36921;49.006;9.292;2023-06-14T06:41:58;8.35;;;3.60;;
50932;SDS011;36921;49.006;9.292;2023-06-14T06:44:23;6.65;;;3.50;;
50932;SDS011;36921;49.006;9.292;2023-06-14T06:46:48;5.75;;;3.60;;
50932;SDS011;36921;49.006;9.292;2023-06-14T06:49:14;7.65;;;3.30;;
50932;SDS011;36921;49.006;9.292;2023-06-14T06:51:42;7.57;;;3.60;;
50932;SDS011;36921;49.006;9.292;2023-06-14T06:54:09;6.07;;;3.50;;
50932;SDS011;36921;49.006;9.292;2023-06-14T06:56:35;6.57;;;4.07;;
50932;SDS011;36921;49.006;9.292;2023-06-14T06:59:01;6.80;;;3.60;;
50932;SDS011;36921;49.006;9.292;2023-06-14T07:01:26;7.68;;;4.15;;
50932;SDS011;36921;49.006;9.292;2023-06-14T07:03:53;4.90;;;3.22;;
50932;SDS011;36921;49.006;9.292;2023-06-14T07:06:19;7.15;;;2.97;;
50932;SDS011;36921;49.006;9.292;2023-06-14T07:08:45;5.82;;;3.30;;
50932;SDS011;36921;49.006;9.292;2023-06-14T07:11:11;6.45;;;3.00;;
50932;SDS011;36921;49.006;9.292;2023-06-14T07:13:36;4.97;;;2.70;;
50932;SDS011;36921;49.006;9.292;2023-06-14T07:16:03;10.30;;;3.40;;
50932;SDS011;36921;49.006;9.292;2023-06-14T07:18:29;5.72;;;2.88;;
50932;SDS011;36921;49.006;9.292;2023-06-14T07:20:55;6.25;;;3.28;;
50932;SDS011;36921;49.006;9.292;2023-06-14T07:23:22;3.40;;;2.78;;
50932;SDS011;36921;49.006;9.292;2023-06-14T07:25:47;5.47;;;3.30;;
50932;SDS011;36921;49.006;9.292;2023-06-14T07:28:13;4.97;;;2.83;;
50932;SDS011;36921;49.006;9.292;2023-06-14T07:30:38;8.05;;;2.65;;
50932;SDS011;36921;49.006;9.292;2023-06-14T07:33:04;4.88;;;2.75;;
50932;SDS011;36921;49.006;9.292;2023-06-14T07:35:29;4.82;;;2.53;;
50932;SDS011;36921;49.006;9.292;2023-06-14T07:37:54;3.15;;;2.50;;
50932;SDS011;36921;49.006;9.292;2023-06-14T07:40:20;6.10;;;3.23;;
50932;SDS011;36921;49.006;9.292;2023-06-14T07:42:45;3.08;;;2.78;;
50932;SDS011;36921;49.006;9.292;2023-06-14T07:45:12;4.50;;;2.63;;
50932;SDS011;36921;49.006;9.292;2023-06-14T07:47:39;4.22;;;2.80;;
50932;SDS011;36921;49.006;9.292;2023-06-14T07:50:04;6.65;;;2.63;;
50932;SDS011;36921;49.006;9.292;2023-06-14T07:52:30;4.82;;;2.00;;
50932;SDS011;36921;49.006;9.292;2023-06-14T07:54:56;3.03;;;2.33;;
50932;SDS011;36921;49.006;9.292;2023-06-14T07:57:21;3.95;;;2.47;;
50932;SDS011;36921;49.006;9.292;2023-06-14T07:59:47;5.18;;;2.55;;
50932;SDS011;36921;49.006;9.292;2023-06-14T08:02:12;5.55;;;2.60;;
50932;SDS011;36921;49.006;9.292;2023-06-14T08:04:38;3.03;;;2.40;;
50932;SDS011;36921;49.006;9.292;2023-06-14T08:07:03;5.10;;;2.53;;
50932;SDS011;36921;49.006;9.292;2023-06-14T08:09:29;7.03;;;2.70;;
50932;SDS011;36921;49.006;9.292;2023-06-14T08:11:55;6.50;;;2.95;;
50932;SDS011;36921;49.006;9.292;2023-06-14T08:14:20;4.70;;;2.67;;
50932;SDS011;36921;49.006;9.292;2023-06-14T08:16:46;4.53;;;2.40;;
50932;SDS011;36921;49.006;9.292;2023-06-14T08:19:11;4.70;;;2.40;;
50932;SDS011;36921;49.006;9.292;2023-06-14T08:21:37;6.78;;;2.72;;
50932;SDS011;36921;49.006;9.292;2023-06-14T08:24:02;3.97;;;2.55;;
50932;SDS011;36921;49.006;9.292;2023-06-14T08:26:28;5.05;;;2.53;;
50932;SDS011;36921;49.006;9.292;2023-06-14T08:28:54;4.95;;;2.58;;
50932;SDS011;36921;49.006;9.292;2023-06-14T08:31:20;5.78;;;2.28;;
50932;SDS011;36921;49.006;9.292;2023-06-14T08:33:46;5.35;;;2.38;;
50932;SDS011;36921;49.006;9.292;2023-06-14T08:36:11;5.25;;;2.20;;
50932;SDS011;36921;49.006;9.292;2023-06-14T08:38:37;4.10;;;2.25;;
50932;SDS011;36921;49.006;9.292;2023-06-14T08:41:03;6.95;;;2.30;;
50932;SDS011;36921;49.006;9.292;2023-06-14T08:43:30;4.43;;;1.98;;
50932;SDS011;36921;49.006;9.292;2023-06-14T08:46:00;2.95;;;1.95;;
50932;SDS011;36921;49.006;9.292;2023-06-14T08:48:28;7.65;;;2.97;;
50932;SDS011;36921;49.006;9.292;2023-06-14T08:50:56;10.27;;;2.72;;
50932;SDS011;36921;49.006;9.292;2023-06-14T08:53:26;12.25;;;2.60;;
50932;SDS011;36921;49.006;9.292;2023-06-14T08:55:53;5.22;;;2.28;;
50932;SDS011;36921;49.006;9.292;2023-06-14T08:58:20;7.43;;;2.03;;
50932;SDS011;36921;49.006;9.292;2023-06-14T09:00:49;5.50;;;2.30;;
50932;SDS011;36921;49.006;9.292;2023-06-14T09:03:15;3.78;;;2.20;;
50932;SDS011;36921;49.006;9.292;2023-06-14T09:05:40;4.53;;;2.45;;
50932;SDS011;36921;49.006;9.292;2023-06-14T09:08:06;4.25;;;2.70;;
50932;SDS011;36921;49.006;9.292;2023-06-14T09:10:32;4.05;;;2.28;;
50932;SDS011;36921;49.006;9.292;2023-06-14T09:13:02;2.83;;;2.20;;
50932;SDS011;36921;49.006;9.292;2023-06-14T09:15:28;6.90;;;2.10;;
50932;SDS011;36921;49.006;9.292;2023-06-14T09:17:55;8.77;;;2.72;;
50932;SDS011;36921;49.006;9.292;2023-06-14T09:20:20;11.98;;;2.20;;
50932;SDS011;36921;49.006;9.292;2023-06-14T09:22:46;6.10;;;1.95;;
50932;SDS011;36921;49.006;9.292;2023-06-14T09:25:11;4.32;;;2.20;;
50932;SDS011;36921;49.006;9.292;2023-06-14T09:27:40;7.30;;;2.47;;
50932;SDS011;36921;49.006;9.292;2023-06-14T09:30:08;5.60;;;2.20;;
50932;SDS011;36921;49.006;9.292;2023-06-14T09:32:38;3.90;;;3.03;;
50932;SDS011;36921;49.006;9.292;2023-06-14T09:35:07;7.45;;;2.30;;
50932;SDS011;36921;49.006;9.292;2023-06-14T09:37:33;3.72;;;1.80;;
50932;SDS011;36921;49.006;9.292;2023-06-14T09:39:59;5.88;;;1.92;;
50932;SDS011;36921;49.006;9.292;2023-06-14T09:42:25;3.95;;;2.00;;
50932;SDS011;36921;49.006;9.292;2023-06-14T09:47:19;5.88;;;1.88;;
50932;SDS011;36921;49.006;9.292;2023-06-14T09:49:46;3.80;;;1.90;;
50932;SDS011;36921;49.006;9.292;2023-06-14T09:52:14;8.55;;;1.95;;
50932;SDS011;36921;49.006;9.292;2023-06-14T09:54:41;5.05;;;1.80;;
50932;SDS011;36921;49.006;9.292;2023-06-14T09:57:20;4.17;;;2.00;;
50932;SDS011;36921;49.006;9.292;2023-06-14T09:59:47;4.25;;;1.80;;
50932;SDS011;36921;49.006;9.292;2023-06-14T10:05:12;3.10;;;1.67;;
50932;SDS011;36921;49.006;9.292;2023-06-14T10:08:04;4.05;;;1.90;;
50932;SDS011;36921;49.006;9.292;2023-06-14T10:10:29;3.38;;;1.60;;
50932;SDS011;36921;49.006;9.292;2023-06-14T10:12:54;4.80;;;1.70;;
50932;SDS011;36921;49.006;9.292;2023-06-14T10:15:25;2.78;;;1.67;;
50932;SDS011;36921;49.006;9.292;2023-06-14T10:21:08;5.90;;;1.60;;
50932;SDS011;36921;49.006;9.292;2023-06-14T10:23:44;3.80;;;1.98;;
50932;SDS011;36921;49.006;9.292;2023-06-14T10:26:18;6.75;;;1.88;;
50932;SDS011;36921;49.006;9.292;2023-06-14T10:28:56;2.50;;;1.88;;
50932;SDS011;36921;49.006;9.292;2023-06-14T10:31:45;7.22;;;2.33;;
50932;SDS011;36921;49.006;9.292;2023-06-14T10:34:13;3.97;;;1.80;;
50932;SDS011;36921;49.006;9.292;2023-06-14T10:36:50;2.30;;;1.80;;
50932;SDS011;36921;49.006;9.292;2023-06-14T10:39:26;4.85;;;1.92;;
50932;SDS011;36921;49.006;9.292;2023-06-14T10:41:53;6.07;;;1.75;;
50932;SDS011;36921;49.006;9.292;2023-06-14T10:46:47;4.43;;;1.80;;
50932;SDS011;36921;49.006;9.292;2023-06-14T10:49:22;3.35;;;1.90;;
50932;SDS011;36921;49.006;9.292;2023-06-14T10:52:14;5.90;;;1.77;;
50932;SDS011;36921;49.006;9.292;2023-06-14T10:55:02;2.92;;;1.90;;
50932;SDS011;36921;49.006;9.292;2023-06-14T10:57:36;2.42;;;1.50;;
50932;SDS011;36921;49.006;9.292;2023-06-14T11:00:04;3.55;;;2.10;;
50932;SDS011;36921;49.006;9.292;2023-06-14T11:06:00;2.67;;;1.90;;
50932;SDS011;36921;49.006;9.292;2023-06-14T11:10:50;2.90;;;1.83;;
50932;SDS011;36921;49.006;9.292;2023-06-14T11:13:19;4.15;;;1.80;;
50932;SDS011;36921;49.006;9.292;2023-06-14T11:15:45;1.60;;;1.40;;
50932;SDS011;36921;49.006;9.292;2023-06-14T11:18:17;4.93;;;1.70;;
50932;SDS011;36921;49.006;9.292;2023-06-14T11:20:45;4.68;;;1.90;;
50932;SDS011;36921;49.006;9.292;2023-06-14T11:23:11;3.55;;;1.73;;
50932;SDS011;36921;49.006;9.292;2023-06-14T11:25:37;4.72;;;1.90;;
50932;SDS011;36921;49.006;9.292;2023-06-14T11:28:02;6.10;;;3.00;;
50932;SDS011;36921;49.006;9.292;2023-06-14T11:30:27;2.58;;;2.10;;
50932;SDS011;36921;49.006;9.292;2023-06-14T11:32:53;3.28;;;2.10;;
50932;SDS011;36921;49.006;9.292;2023-06-14T11:35:23;5.13;;;2.00;;
50932;SDS011;36921;49.006;9.292;2023-06-14T11:37:53;5.38;;;2.20;;
50932;SDS011;36921;49.006;9.292;2023-06-14T11:40:25;6.43;;;2.13;;
50932;SDS011;36921;49.006;9.292;2023-06-14T11:42:58;3.80;;;1.95;;
50932;SDS011;36921;49.006;9.292;2023-06-14T11:45:25;4.88;;;1.83;;
50932;SDS011;36921;49.006;9.292;2023-06-14T11:47:50;8.13;;;1.70;;
50932;SDS011;36921;49.006;9.292;2023-06-14T11:50:15;7.47;;;2.13;;
50932;SDS011;36921;49.006;9.292;2023-06-14T11:52:40;5.05;;;1.80;;
50932;SDS011;36921;49.006;9.292;2023-06-14T11:55:06;2.45;;;1.90;;
50932;SDS011;36921;49.006;9.292;2023-06-14T11:57:35;2.85;;;2.10;;
50932;SDS011;36921;49.006;9.292;2023-06-14T12:00:04;4.03;;;2.10;;
50932;SDS011;36921;49.006;9.292;2023-06-14T12:02:33;2.70;;;1.90;;
50932;SDS011;36921;49.006;9.292;2023-06-14T12:05:03;4.55;;;2.10;;
50932;SDS011;36921;49.006;9.292;2023-06-14T12:07:31;2.65;;;1.98;;
50932;SDS011;36921;49.006;9.292;2023-06-14T12:12:21;2.80;;;2.03;;
50932;SDS011;36921;49.006;9.292;2023-06-14T12:14:47;4.45;;;1.80;;
50932;SDS011;36921;49.006;9.292;2023-06-14T12:17:13;3.60;;;2.13;;
50932;SDS011;36921;49.006;9.292;2023-06-14T12:19:41;6.30;;;2.43;;
50932;SDS011;36921;49.006;9.292;2023-06-14T12:22:14;3.95;;;2.40;;
50932;SDS011;36921;49.006;9.292;2023-06-14T12:24:43;4.03;;;2.33;;
50932;SDS011;36921;49.006;9.292;2023-06-14T12:27:09;5.07;;;2.38;;
50932;SDS011;36921;49.006;9.292;2023-06-14T12:29:37;5.78;;;2.25;;
50932;SDS011;36921;49.006;9.292;2023-06-14T12:32:03;6.20;;;2.60;;
50932;SDS011;36921;49.006;9.292;2023-06-14T12:34:28;3.25;;;2.33;;
50932;SDS011;36921;49.006;9.292;2023-06-14T12:36:54;3.28;;;2.13;;
50932;SDS011;36921;49.006;9.292;2023-06-14T12:39:19;6.05;;;2.25;;
50932;SDS011;36921;49.006;9.292;2023-06-14T12:41:45;2.47;;;1.90;;
50932;SDS011;36921;49.006;9.292;2023-06-14T12:44:11;4.97;;;2.22;;
50932;SDS011;36921;49.006;9.292;2023-06-14T12:46:37;3.72;;;2.28;;
50932;SDS011;36921;49.006;9.292;2023-06-14T12:49:07;5.25;;;2.67;;
50932;SDS011;36921;49.006;9.292;2023-06-14T12:51:34;7.97;;;2.38;;
50932;SDS011;36921;49.006;9.292;2023-06-14T12:53:59;2.63;;;1.80;;
50932;SDS011;36921;49.006;9.292;2023-06-14T12:56:25;3.83;;;1.70;;
50932;SDS011;36921;49.006;9.292;2023-06-14T12:58:51;5.60;;;2.10;;
50932;SDS011;36921;49.006;9.292;2023-06-14T13:01:16;6.82;;;1.80;;
50932;SDS011;36921;49.006;9.292;2023-06-14T13:03:42;6.25;;;2.22;;
50932;SDS011;36921;49.006;9.292;2023-06-14T13:06:07;3.97;;;1.52;;
50932;SDS011;36921;49.006;9.292;2023-06-14T13:08:33;3.23;;;1.73;;
50932;SDS011;36921;49.006;9.292;2023-06-14T13:10:58;4.17;;;2.00;;
50932;SDS011;36921;49.006;9.292;2023-06-14T13:13:23;2.53;;;1.70;;
50932;SDS011;36921;49.006;9.292;2023-06-14T13:15:49;4.60;;;1.90;;
50932;SDS011;36921;49.006;9.292;2023-06-14T13:18:15;2.42;;;1.70;;
50932;SDS011;36921;49.006;9.292;2023-06-14T13:20:41;2.17;;;1.88;;
50932;SDS011;36921;49.006;9.292;2023-06-14T13:23:06;4.28;;;1.92;;
50932;SDS011;36921;49.006;9.292;2023-06-14T13:25:33;2.58;;;1.83;;
50932;SDS011;36921;49.006;9.292;2023-06-14T13:27:59;7.00;;;1.73;;
50932;SDS011;36921;49.006;9.292;2023-06-14T13:30:24;6.18;;;2.10;;
50932;SDS011;36921;49.006;9.292;2023-06-14T13:32:50;5.80;;;2.28;;
50932;SDS011;36921;49.006;9.292;2023-06-14T13:35:17;4.28;;;2.00;;
50932;SDS011;36921;49.006;9.292;2023-06-14T13:37:45;7.30;;;2.20;;
50932;SDS011;36921;49.006;9.292;2023-06-14T13:40:10;7.65;;;2.28;;
50932;SDS011;36921;49.006;9.292;2023-06-14T13:42:36;3.50;;;2.15;;
50932;SDS011;36921;49.006;9.292;2023-06-14T13:45:05;3.35;;;2.25;;
50932;SDS011;36921;49.006;9.292;2023-06-14T13:47:31;3.40;;;2.10;;
50932;SDS011;36921;49.006;9.292;2023-06-14T13:49:57;4.78;;;1.90;;
50932;SDS011;36921;49.006;9.292;2023-06-14T13:52:23;4.57;;;1.92;;
50932;SDS011;36921;49.006;9.292;2023-06-14T13:54:48;4.00;;;1.92;;
50932;SDS011;36921;49.006;9.292;2023-06-14T13:57:14;4.28;;;2.03;;
50932;SDS011;36921;49.006;9.292;2023-06-14T13:59:40;7.63;;;2.03;;
50932;SDS011;36921;49.006;9.292;2023-06-14T14:02:07;3.53;;;2.40;;
50932;SDS011;36921;49.006;9.292;2023-06-14T14:04:33;10.82;;;2.35;;
50932;SDS011;36921;49.006;9.292;2023-06-14T14:07:02;5.38;;;2.00;;
50932;SDS011;36921;49.006;9.292;2023-06-14T14:09:29;2.65;;;2.00;;
50932;SDS011;36921;49.006;9.292;2023-06-14T14:11:55;5.18;;;2.08;;
50932;SDS011;36921;49.006;9.292;2023-06-14T14:14:20;2.58;;;1.95;;
50932;SDS011;36921;49.006;9.292;2023-06-14T14:16:46;6.95;;;2.17;;
50932;SDS011;36921;49.006;9.292;2023-06-14T14:19:11;2.67;;;2.00;;
50932;SDS011;36921;49.006;9.292;2023-06-14T14:21:36;4.10;;;2.08;;
50932;SDS011;36921;49.006;9.292;2023-06-14T14:24:02;5.10;;;2.05;;
50932;SDS011;36921;49.006;9.292;2023-06-14T14:26:28;3.20;;;2.03;;
50932;SDS011;36921;49.006;9.292;2023-06-14T14:28:53;3.03;;;2.08;;
50932;SDS011;36921;49.006;9.292;2023-06-14T14:31:19;5.78;;;2.65;;
50932;SDS011;36921;49.006;9.292;2023-06-14T14:33:44;6.78;;;1.95;;
50932;SDS011;36921;49.006;9.292;2023-06-14T14:36:09;3.58;;;2.30;;
50932;SDS011;36921;49.006;9.292;2023-06-14T14:38:35;7.47;;;2.40;;
50932;SDS011;36921;49.006;9.292;2023-06-14T14:41:00;4.60;;;2.47;;
50932;SDS011;36921;49.006;9.292;2023-06-14T14:43:26;4.68;;;2.50;;
50932;SDS011;36921;49.006;9.292;2023-06-14T14:45:51;3.00;;;2.42;;
50932;SDS011;36921;49.006;9.292;2023-06-14T14:48:17;4.43;;;2.30;;
50932;SDS011;36921;49.006;9.292;2023-06-14T14:50:42;7.20;;;2.35;;
50932;SDS011;36921;49.006;9.292;2023-06-14T14:53:07;10.05;;;2.80;;
50932;SDS011;36921;49.006;9.292;2023-06-14T14:55:33;3.30;;;2.00;;
50932;SDS011;36921;49.006;9.292;2023-06-14T14:58:02;3.10;;;2.03;;
50932;SDS011;36921;49.006;9.292;2023-06-14T15:00:28;3.72;;;2.17;;
50932;SDS011;36921;49.006;9.292;2023-06-14T15:02:54;6.28;;;2.30;;